Time;durP1;ratioP1;P1;durP2;ratioP2;P2;SDS_P1;SDS_P2;PMS_P1;PMS_P2;Temp;Humidity;BMP_temperature;BMP_pressure;BME280_temperature;BME280_humidity;BME280_pressure;Samples;Min_cycle;Max_cycle;Signal;HPM_P1;HPM_P2
2021/05/16 00:01:42;;;;;;;27.13;12.65;;;;;;;14.40;66.24;100087.91;5083905;28;20479;-80
2021/05/16 00:04:09;;;;;;;25.40;12.43;;;;;;;14.42;66.05;100087.84;5083366;28;20368;-79
2021/05/16 00:06:35;;;;;;;25.60;11.40;;;;;;;14.38;66.49;100084.44;5080895;28;20031;-79
2021/05/16 00:09:03;;;;;;;21.08;10.93;;;;;;;14.40;66.12;100084.38;5077849;28;20103;-79
2021/05/16 00:11:33;;;;;;;20.58;10.98;;;;;;;14.50;65.79;100090.13;5081375;28;20476;-80
2021/05/16 00:14:01;;;;;;;22.63;10.45;;;;;;;14.45;65.92;100093.00;5080753;28;20040;-79
2021/05/16 00:16:28;;;;;;;23.45;10.30;;;;;;;14.49;65.96;100089.28;5087952;28;20106;-80
2021/05/16 00:18:54;;;;;;;21.20;9.27;;;;;;;14.45;65.67;100092.16;5092169;28;20036;-79
2021/05/16 00:21:21;;;;;;;27.58;10.48;;;;;;;14.47;65.37;100095.63;5085217;28;20109;-80
2021/05/16 00:23:48;;;;;;;21.52;9.02;;;;;;;14.48;65.41;100090.22;5093095;28;20033;-80
2021/05/16 00:26:14;;;;;;;18.13;8.23;;;;;;;14.51;65.23;100094.53;5092811;28;20081;-80
2021/05/16 00:28:41;;;;;;;17.70;8.25;;;;;;;14.52;64.86;100088.25;5091087;28;20036;-80
2021/05/16 00:31:10;;;;;;;22.30;10.52;;;;;;;14.56;64.76;100084.50;5085758;22;20049;-83
2021/05/16 00:33:36;;;;;;;16.17;8.68;;;;;;;14.53;64.78;100090.84;5035945;28;20515;-81
2021/05/16 00:36:03;;;;;;;17.98;8.07;;;;;;;14.48;64.68;100092.00;5055476;28;20029;-81
2021/05/16 00:38:37;;;;;;;16.15;7.55;;;;;;;14.52;64.53;100093.59;5055814;28;20029;-81
2021/05/16 00:41:04;;;;;;;17.17;7.90;;;;;;;14.54;64.04;100097.03;5040049;28;20107;-85
2021/05/16 00:43:31;;;;;;;16.70;7.85;;;;;;;14.46;64.03;100097.41;5036135;28;20036;-81
2021/05/16 00:45:57;;;;;;;15.80;7.32;;;;;;;14.30;64.80;100104.41;5040488;28;20098;-82
2021/05/16 00:48:24;;;;;;;15.07;7.80;;;;;;;14.44;64.29;100103.75;5048448;28;20033;-83
2021/05/16 00:50:51;;;;;;;16.60;8.57;;;;;;;14.42;64.29;100101.16;5036223;28;20030;-83
2021/05/16 00:53:22;;;;;;;15.77;8.95;;;;;;;14.32;64.74;100103.41;5036987;28;20048;-81
2021/05/16 00:55:50;;;;;;;18.38;8.07;;;;;;;14.22;64.89;100097.63;5032001;28;20038;-82
2021/05/16 00:58:17;;;;;;;12.10;7.22;;;;;;;14.20;65.11;100102.16;5042414;28;20171;-83
2021/05/16 01:00:44;;;;;;;11.80;7.53;;;;;;;14.08;65.92;100100.94;5039202;28;20385;-82
2021/05/16 01:03:12;;;;;;;16.75;7.18;;;;;;;13.90;66.63;100100.00;5041959;28;20133;-82
2021/05/16 01:05:42;;;;;;;16.80;6.65;;;;;;;14.03;65.84;100102.09;5035437;28;20025;-82
2021/05/16 01:08:10;;;;;;;18.58;7.38;;;;;;;13.91;66.29;100093.72;5035747;28;20038;-81
2021/05/16 01:10:37;;;;;;;22.65;8.38;;;;;;;13.85;66.42;100096.69;5044620;28;20541;-82
2021/05/16 01:13:06;;;;;;;20.50;8.48;;;;;;;13.93;66.13;100095.47;5038124;28;20354;-82
2021/05/16 01:15:33;;;;;;;16.77;8.00;;;;;;;13.82;66.42;100094.16;5032716;28;20021;-84
2021/05/16 01:18:00;;;;;;;13.43;9.00;;;;;;;13.96;66.02;100095.34;5035660;28;20033;-82
2021/05/16 01:20:32;;;;;;;16.30;8.40;;;;;;;14.02;66.15;100089.72;5033611;28;20473;-84
2021/05/16 01:23:05;;;;;;;17.05;8.50;;;;;;;14.02;66.62;100100.38;5044783;28;20026;-82
2021/05/16 01:25:37;;;;;;;20.30;8.93;;;;;;;13.93;66.67;100095.47;5036492;28;20082;-80
2021/05/16 01:28:05;;;;;;;18.75;8.70;;;;;;;13.97;66.86;100089.06;5032877;28;20100;-82
2021/05/16 01:30:32;;;;;;;22.85;9.57;;;;;;;13.98;66.41;100093.44;5035751;28;20477;-81
2021/05/16 01:33:00;;;;;;;19.00;9.32;;;;;;;13.96;66.75;100090.88;5045726;28;20498;-82
2021/05/16 01:35:28;;;;;;;27.13;9.50;;;;;;;14.08;66.67;100092.09;5036343;28;20025;-82
2021/05/16 01:37:55;;;;;;;16.20;9.32;;;;;;;14.12;66.29;100093.69;5037041;28;20029;-82
2021/05/16 01:40:22;;;;;;;28.15;10.55;;;;;;;14.15;66.35;100098.84;5035374;28;20025;-81
2021/05/16 01:42:51;;;;;;;43.58;11.70;;;;;;;14.10;67.28;100092.88;5035543;28;20037;-83
2021/05/16 01:45:23;;;;;;;33.97;13.88;;;;;;;14.08;67.18;100092.09;5033818;28;20033;-82
2021/05/16 01:48:03;;;;;;;48.37;17.17;;;;;;;13.99;67.84;100092.53;5044867;28;20084;-81
2021/05/16 01:50:41;;;;;;;52.13;19.52;;;;;;;13.79;68.11;100088.97;5035506;28;20040;-82
2021/05/16 01:53:17;;;;;;;58.47;20.13;;;;;;;13.81;68.34;100079.13;5041778;28;20029;-82
2021/05/16 01:55:52;;;;;;;59.83;19.05;;;;;;;13.93;67.57;100087.47;5038673;28;20029;-82
2021/05/16 01:58:20;;;;;;;46.88;19.13;;;;;;;13.79;68.40;100083.63;5045956;28;20064;-82
2021/05/16 02:00:46;;;;;;;48.58;18.00;;;;;;;13.89;68.04;100089.41;5039150;28;20035;-83
2021/05/16 02:03:14;;;;;;;48.55;18.00;;;;;;;13.89;68.00;100087.63;5042060;28;20037;-82
2021/05/16 02:05:41;;;;;;;67.97;21.10;;;;;;;13.69;68.78;100082.34;5041734;28;20075;-83
2021/05/16 02:08:08;;;;;;;46.00;18.77;;;;;;;13.78;68.49;100087.22;5048041;28;20021;-82
2021/05/16 02:10:36;;;;;;;61.97;18.40;;;;;;;13.75;68.11;100093.56;5042128;28;20068;-83
2021/05/16 02:13:02;;;;;;;51.15;17.38;;;;;;;13.74;68.62;100086.53;5040485;28;20029;-82
2021/05/16 02:15:29;;;;;;;48.75;17.38;;;;;;;13.67;68.49;100089.53;5040274;28;20070;-82
2021/05/16 02:17:57;;;;;;;38.70;14.88;;;;;;;13.76;68.21;100086.47;5040864;28;20029;-81
2021/05/16 02:20:24;;;;;;;45.15;15.68;;;;;;;13.78;68.23;100081.91;5043080;28;20040;-80
2021/05/16 02:22:51;;;;;;;51.75;17.85;;;;;;;13.56;68.96;100096.19;5038146;28;20029;-78
2021/05/16 02:25:19;;;;;;;48.30;16.60;;;;;;;13.73;67.93;100084.81;5040126;28;20029;-84
2021/05/16 02:27:47;;;;;;;55.33;19.00;;;;;;;13.52;68.82;100080.44;5038608;28;20030;-83
2021/05/16 02:30:16;;;;;;;56.45;19.77;;;;;;;13.66;68.39;100085.16;5044134;28;20033;-83
2021/05/16 02:32:42;;;;;;;50.72;19.92;;;;;;;13.66;68.05;100080.69;5047685;28;20033;-81
2021/05/16 02:35:12;;;;;;;52.17;19.52;;;;;;;13.59;68.44;100081.88;5040388;28;20430;-82
2021/05/16 02:37:39;;;;;;;46.17;18.83;;;;;;;13.75;68.21;100082.91;5037410;28;20044;-82
2021/05/16 02:40:07;;;;;;;46.60;18.08;;;;;;;13.68;68.49;100084.16;5037979;28;20472;-82
2021/05/16 02:42:34;;;;;;;49.80;19.17;;;;;;;13.58;68.81;100086.34;5035694;28;20037;-83
2021/05/16 02:45:00;;;;;;;47.15;18.23;;;;;;;13.56;68.83;100090.03;5047015;28;20029;-82
2021/05/16 02:47:27;;;;;;;50.95;19.08;;;;;;;13.68;67.74;100085.94;5048433;28;20020;-82
2021/05/16 02:49:54;;;;;;;46.03;18.42;;;;;;;13.69;67.91;100085.00;5038110;28;20067;-82
2021/05/16 02:52:20;;;;;;;47.10;18.98;;;;;;;13.70;68.01;100090.25;5030416;28;20022;-83
2021/05/16 02:54:47;;;;;;;42.85;17.40;;;;;;;13.75;67.58;100087.38;5037970;28;20069;-81
2021/05/16 02:57:14;;;;;;;53.45;17.83;;;;;;;13.53;68.40;100090.16;5035850;28;20028;-82
2021/05/16 02:59:41;;;;;;;47.47;16.40;;;;;;;13.68;67.92;100088.59;5037524;28;20025;-83
2021/05/16 03:02:08;;;;;;;39.72;16.85;;;;;;;13.72;68.02;100092.84;5037692;28;20025;-81
2021/05/16 03:04:34;;;;;;;47.63;16.40;;;;;;;13.62;67.83;100107.50;5037747;28;20022;-82
2021/05/16 03:07:01;;;;;;;38.22;13.63;;;;;;;13.64;68.06;100093.19;5039429;28;20582;-83
2021/05/16 03:09:30;;;;;;;34.15;13.52;;;;;;;13.68;67.74;100085.94;5040059;28;20029;-83
2021/05/16 03:11:56;;;;;;;41.53;13.55;;;;;;;13.61;67.99;100082.69;5037649;28;20507;-83
2021/05/16 03:14:23;;;;;;;37.60;14.48;;;;;;;13.52;67.86;100096.41;5037390;28;20037;-82
2021/05/16 03:16:50;;;;;;;34.05;13.48;;;;;;;13.53;67.61;100090.16;5037593;28;20038;-81
2021/05/16 03:19:17;;;;;;;40.83;13.45;;;;;;;13.59;67.13;100090.75;5048582;28;20021;-82
2021/05/16 03:21:43;;;;;;;30.90;13.27;;;;;;;13.59;67.34;100087.22;5036082;28;20026;-81
2021/05/16 03:24:10;;;;;;;34.65;14.52;;;;;;;13.58;67.20;100080.16;5037479;28;20048;-84
2021/05/16 03:26:37;;;;;;;36.10;14.73;;;;;;;13.45;67.60;100090.50;5037430;28;20376;-82
2021/05/16 03:29:04;;;;;;;32.58;12.52;;;;;;;13.41;67.88;100094.22;5039195;28;20030;-82
2021/05/16 03:31:31;;;;;;;37.42;12.57;;;;;;;13.45;67.77;100086.97;5049759;28;20032;-84
2021/05/16 03:33:58;;;;;;;32.35;12.48;;;;;;;13.48;67.21;100090.34;5037216;28;20032;-82
2021/05/16 03:36:24;;;;;;;28.50;12.80;;;;;;;13.49;67.18;100091.22;5036623;28;20033;-82
2021/05/16 03:38:51;;;;;;;28.52;11.57;;;;;;;13.50;67.54;100093.81;5035587;28;20564;-83
2021/05/16 03:41:17;;;;;;;33.70;12.10;;;;;;;13.42;67.67;100095.94;5040249;28;20021;-81
2021/05/16 03:43:45;;;;;;;29.95;11.20;;;;;;;13.53;67.40;100088.38;5039487;28;20032;-83
2021/05/16 03:46:12;;;;;;;32.70;10.30;;;;;;;13.62;66.76;100096.84;5049550;28;20025;-82
2021/05/16 03:48:39;;;;;;;31.40;11.25;;;;;;;13.58;67.52;100090.78;5034935;28;20492;-83
2021/05/16 03:51:06;;;;;;;32.42;11.40;;;;;;;13.49;67.48;100100.06;5036777;28;20025;-82
2021/05/16 03:53:33;;;;;;;34.95;10.77;;;;;;;13.55;67.40;100091.81;5038864;28;20048;-82
2021/05/16 03:56:00;;;;;;;32.25;12.93;;;;;;;13.46;67.73;100086.91;5035803;28;20034;-84
2021/05/16 03:58:27;;;;;;;37.83;11.15;;;;;;;13.57;67.81;100081.97;5034069;28;20108;-81
2021/05/16 04:00:53;;;;;;;31.85;11.05;;;;;;;13.49;67.99;100086.75;5033691;28;20048;-83
2021/05/16 04:03:20;;;;;;;32.60;11.25;;;;;;;13.47;68.14;100096.63;5036384;28;20053;-79
2021/05/16 04:05:46;;;;;;;30.40;11.35;;;;;;;13.54;67.88;100095.38;5036221;28;20033;-82
2021/05/16 04:08:13;;;;;;;27.55;10.50;;;;;;;13.51;68.25;100100.88;5033171;28;20389;-78
2021/05/16 04:10:42;;;;;;;32.00;12.35;;;;;;;13.52;68.45;100102.59;5031996;28;20042;-81
2021/05/16 04:13:09;;;;;;;31.45;11.60;;;;;;;13.48;68.13;100111.63;5036256;28;20579;-81
2021/05/16 04:15:36;;;;;;;32.45;10.98;;;;;;;13.26;69.25;100117.84;5034732;28;20026;-82
2021/05/16 04:18:02;;;;;;;24.17;11.55;;;;;;;13.38;68.28;100115.63;5034694;28;20036;-83
2021/05/16 04:20:29;;;;;;;26.83;8.73;;;;;;;13.39;68.36;100120.03;5030130;28;20431;-81
2021/05/16 04:22:55;;;;;;;23.85;9.07;;;;;;;13.26;68.54;100106.38;5034620;28;20037;-80
2021/05/16 04:25:22;;;;;;;20.77;8.82;;;;;;;13.30;68.95;100113.28;5035067;28;20340;-82
2021/05/16 04:27:48;;;;;;;24.13;9.60;;;;;;;13.33;68.86;100113.13;5034086;28;20540;-84
2021/05/16 04:30:15;;;;;;;32.20;10.35;;;;;;;13.31;68.17;100108.81;5033630;28;20404;-83
2021/05/16 04:32:42;;;;;;;31.67;10.95;;;;;;;13.35;68.54;100107.75;5034230;28;20017;-81
2021/05/16 04:35:09;;;;;;;26.25;10.38;;;;;;;13.43;68.39;100110.97;5033704;28;20036;-84
2021/05/16 04:37:36;;;;;;;25.02;9.45;;;;;;;13.42;68.06;100111.91;5034255;28;20022;-83
2021/05/16 04:40:04;;;;;;;31.63;10.38;;;;;;;13.44;68.48;100118.03;5033932;28;20030;-84
2021/05/16 04:42:31;;;;;;;33.50;10.18;;;;;;;13.46;67.99;100118.84;5031410;28;20026;-83
2021/05/16 04:44:58;;;;;;;41.22;10.80;;;;;;;13.45;68.25;100121.56;5033333;28;20061;-79
2021/05/16 04:47:25;;;;;;;26.20;8.25;;;;;;;13.36;67.85;100120.16;5034024;28;20033;-83
2021/05/16 04:49:51;;;;;;;30.63;8.80;;;;;;;13.31;68.36;100127.44;5034486;28;20017;-83
2021/05/16 04:52:18;;;;;;;34.88;9.75;;;;;;;13.27;68.45;100137.34;5034056;28;20079;-83
2021/05/16 04:54:45;;;;;;;38.00;11.05;;;;;;;13.16;68.78;100132.50;5034032;28;20060;-83
2021/05/16 04:57:12;;;;;;;35.17;10.45;;;;;;;13.23;68.93;100141.06;5034825;28;20025;-82
2021/05/16 04:59:39;;;;;;;36.22;10.60;;;;;;;13.26;68.22;100138.28;5036889;28;20041;-84
2021/05/16 05:02:07;;;;;;;39.40;10.27;;;;;;;13.20;69.53;100130.56;5034763;28;20125;-82
2021/05/16 05:04:37;;;;;;;34.05;10.43;;;;;;;13.30;69.14;100142.53;5038058;28;20029;-83
2021/05/16 05:07:06;;;;;;;42.55;10.48;;;;;;;13.34;68.93;100140.63;5036676;28;20423;-82
2021/05/16 05:09:36;;;;;;;41.08;10.07;;;;;;;13.45;68.58;100132.22;5039767;28;20036;-81
2021/05/16 05:12:03;;;;;;;39.13;9.90;;;;;;;13.49;68.58;100139.13;5034775;28;20432;-83
2021/05/16 05:14:30;;;;;;;41.47;9.73;;;;;;;13.40;68.71;100138.56;5045816;28;20030;-81
2021/05/16 05:16:57;;;;;;;42.72;10.93;;;;;;;13.51;68.70;100138.13;5041803;28;20549;-83
2021/05/16 05:19:24;;;;;;;39.75;11.65;;;;;;;13.46;68.40;100145.44;5036826;28;20040;-82
2021/05/16 05:21:51;;;;;;;43.20;11.82;;;;;;;13.40;68.33;100141.25;5035735;28;20485;-82
2021/05/16 05:24:17;;;;;;;45.67;13.13;;;;;;;13.37;69.10;100144.03;5036834;28;20033;-83
2021/05/16 05:26:44;;;;;;;42.03;14.48;;;;;;;13.45;68.92;100132.22;5046045;28;20018;-83
2021/05/16 05:29:10;;;;;;;42.13;13.45;;;;;;;13.51;68.79;100138.13;5040573;28;20057;-82
2021/05/16 05:31:37;;;;;;;41.72;13.38;;;;;;;13.65;68.48;100140.16;5042207;28;20572;-83
2021/05/16 05:34:03;;;;;;;42.20;13.90;;;;;;;13.64;68.89;100137.59;5037687;28;20037;-82
2021/05/16 05:36:30;;;;;;;46.53;13.75;;;;;;;13.75;68.61;100141.50;5042569;28;20029;-83
2021/05/16 05:38:58;;;;;;;55.22;14.70;;;;;;;13.86;69.00;100127.69;5040299;28;20025;-83
2021/05/16 05:41:24;;;;;;;49.08;13.13;;;;;;;13.90;68.52;100136.41;5040055;28;20022;-83
2021/05/16 05:43:50;;;;;;;55.28;13.10;;;;;;;13.93;68.62;100132.75;5040245;28;20033;-83
2021/05/16 05:46:17;;;;;;;42.05;12.80;;;;;;;14.01;68.15;100133.28;5040857;28;20030;-81
2021/05/16 05:48:43;;;;;;;43.00;13.55;;;;;;;13.94;68.95;100146.00;5052809;28;20025;-81
2021/05/16 05:51:09;;;;;;;60.22;15.38;;;;;;;13.99;68.50;100137.78;5040586;28;20022;-82
2021/05/16 05:53:37;;;;;;;40.10;12.63;;;;;;;13.95;68.64;100130.91;5039887;28;20679;-83
2021/05/16 05:56:04;;;;;;;39.40;12.27;;;;;;;14.21;67.90;100143.00;5038328;28;20506;-82
2021/05/16 05:58:33;;;;;;;49.15;13.68;;;;;;;14.27;67.82;100133.84;5051045;28;20372;-81
2021/05/16 06:00:59;;;;;;;65.30;13.32;;;;;;;14.06;68.34;100137.44;5047192;28;20036;-82
2021/05/16 06:03:26;;;;;;;31.38;11.40;;;;;;;14.37;67.25;100143.16;5040017;28;20102;-84
2021/05/16 06:05:52;;;;;;;43.17;12.75;;;;;;;14.24;67.67;100142.84;5039666;28;20068;-83
2021/05/16 06:08:19;;;;;;;44.53;12.45;;;;;;;14.47;67.23;100144.44;5036073;28;20139;-83
2021/05/16 06:10:46;;;;;;;38.35;12.13;;;;;;;14.31;67.14;100140.78;5044995;28;20103;-83
2021/05/16 06:13:13;;;;;;;46.95;13.52;;;;;;;14.53;66.78;100144.16;5039915;28;20147;-83
2021/05/16 06:15:40;;;;;;;45.20;11.88;;;;;;;14.59;67.05;100152.78;5039661;28;20083;-82
2021/05/16 06:18:07;;;;;;;48.70;11.85;;;;;;;14.74;66.71;100141.41;5039746;28;20608;-84
2021/05/16 06:20:34;;;;;;;36.38;10.60;;;;;;;14.92;66.31;100150.31;5034458;28;20045;-82
2021/05/16 06:23:03;;;;;;;36.00;12.02;;;;;;;14.81;66.26;100152.66;5046470;28;20115;-82
2021/05/16 06:25:30;;;;;;;41.95;11.88;;;;;;;14.90;65.40;100152.19;5039574;28;20026;-84
2021/05/16 06:27:56;;;;;;;46.95;10.52;;;;;;;14.79;65.35;100154.53;5039456;28;20030;-84
2021/05/16 06:30:24;;;;;;;30.05;9.93;;;;;;;14.85;65.51;100155.13;5036062;28;20032;-82
2021/05/16 06:32:51;;;;;;;35.28;9.82;;;;;;;14.89;65.21;100153.13;5034097;28;20046;-83
2021/05/16 06:35:17;;;;;;;31.08;9.45;;;;;;;14.93;64.99;100157.41;5038038;28;20025;-83
2021/05/16 06:37:45;;;;;;;32.65;10.70;;;;;;;14.71;65.65;100157.56;5036605;28;20117;-81
2021/05/16 06:40:13;;;;;;;35.05;12.05;;;;;;;14.71;65.34;100157.56;5038969;28;20030;-83
2021/05/16 06:42:41;;;;;;;34.88;11.15;;;;;;;14.80;64.77;100156.25;5038387;28;20060;-84
2021/05/16 06:45:08;;;;;;;33.85;10.70;;;;;;;14.77;64.84;100162.59;5039073;28;20365;-83
2021/05/16 06:47:34;;;;;;;37.22;10.70;;;;;;;14.81;64.57;100153.50;5040636;28;20079;-83
2021/05/16 06:50:01;;;;;;;38.38;10.88;;;;;;;14.37;65.99;100153.81;5038842;28;20029;-83
2021/05/16 06:52:27;;;;;;;39.53;10.32;;;;;;;14.73;64.83;100161.03;5040893;28;20036;-82
2021/05/16 06:54:54;;;;;;;37.10;10.57;;;;;;;14.75;65.39;100161.81;5041647;28;20025;-81
2021/05/16 06:57:20;;;;;;;40.70;10.63;;;;;;;14.90;64.87;100159.34;5037806;28;20080;-82
2021/05/16 06:59:46;;;;;;;31.88;9.68;;;;;;;15.06;64.48;100168.31;5035672;28;20025;-80
2021/05/16 07:02:13;;;;;;;35.30;10.50;;;;;;;15.07;64.63;100170.03;5034778;28;20026;-82
2021/05/16 07:04:42;;;;;;;30.30;9.02;;;;;;;15.14;64.32;100176.81;5035397;28;20094;-82
2021/05/16 07:07:09;;;;;;;39.58;10.18;;;;;;;15.20;63.97;100170.28;5038420;28;21322;-83
2021/05/16 07:09:35;;;;;;;34.72;9.45;;;;;;;15.20;64.14;100165.84;5042957;28;20066;-81
2021/05/16 07:12:01;;;;;;;33.47;8.82;;;;;;;15.04;63.66;100167.50;5037861;28;20025;-80
2021/05/16 07:14:28;;;;;;;39.17;8.68;;;;;;;15.08;63.45;100171.78;5037903;28;20029;-80
2021/05/16 07:16:55;;;;;;;40.75;8.32;;;;;;;15.22;63.05;100167.56;5035449;28;20029;-83
2021/05/16 07:19:23;;;;;;;31.92;7.90;;;;;;;15.44;63.03;100172.66;5030996;28;20030;-80
2021/05/16 07:21:51;;;;;;;36.65;8.40;;;;;;;15.48;62.58;100168.91;5033707;28;20025;-81
2021/05/16 07:24:17;;;;;;;32.70;10.57;;;;;;;15.64;62.59;100174.31;5035275;28;20079;-80
2021/05/16 07:26:44;;;;;;;33.63;9.90;;;;;;;15.76;61.98;100175.47;5039313;28;20447;-81
2021/05/16 07:29:11;;;;;;;40.15;17.65;;;;;;;15.58;61.20;100185.31;5034785;28;20040;-82
2021/05/16 07:31:38;;;;;;;25.75;9.93;;;;;;;15.64;61.61;100180.53;5032680;28;20022;-83
2021/05/16 07:34:04;;;;;;;32.78;8.70;;;;;;;15.74;60.81;100178.25;5033188;28;20049;-81
2021/05/16 07:36:30;;;;;;;33.13;9.27;;;;;;;15.77;61.04;100180.72;5049805;28;20029;-84
2021/05/16 07:38:57;;;;;;;25.33;8.98;;;;;;;15.94;60.64;100173.69;5028369;28;20081;-84
2021/05/16 07:41:23;;;;;;;34.45;8.13;;;;;;;15.98;60.66;100169.91;5029950;28;20125;-84
2021/05/16 07:43:49;;;;;;;29.77;9.60;;;;;;;16.07;60.43;100184.56;5030963;28;20512;-82
2021/05/16 07:46:16;;;;;;;28.40;8.40;;;;;;;15.75;60.43;100179.97;5027011;28;20083;-80
2021/05/16 07:48:42;;;;;;;31.65;8.68;;;;;;;15.62;60.73;100174.38;5030961;28;20025;-83
2021/05/16 07:51:09;;;;;;;24.88;9.30;;;;;;;15.71;60.33;100181.06;5031377;28;20033;-82
2021/05/16 07:53:35;;;;;;;36.53;10.13;;;;;;;15.20;61.14;100181.84;5031583;28;20044;-82
2021/05/16 07:56:03;;;;;;;31.65;9.80;;;;;;;15.55;60.75;100177.47;5031600;28;20500;-82
2021/05/16 07:58:30;;;;;;;27.92;8.98;;;;;;;15.57;60.40;100179.09;5029329;28;20029;-81
2021/05/16 08:00:56;;;;;;;33.67;9.20;;;;;;;15.49;60.23;100184.84;5027541;28;20033;-83
2021/05/16 08:03:23;;;;;;;33.42;9.00;;;;;;;15.77;59.86;100174.53;5030441;28;20041;-83
2021/05/16 08:05:51;;;;;;;28.23;8.07;;;;;;;15.69;59.12;100178.47;5031919;28;20061;-82
2021/05/16 08:08:19;;;;;;;27.77;8.55;;;;;;;16.13;59.03;100184.25;5031932;28;20082;-83
2021/05/16 08:10:46;;;;;;;24.75;8.27;;;;;;;16.16;58.53;100187.63;5032160;28;20476;-84
2021/05/16 08:13:13;;;;;;;37.78;8.55;;;;;;;16.05;58.15;100183.78;5029886;28;20026;-81
2021/05/16 08:15:40;;;;;;;23.50;7.60;;;;;;;16.36;57.68;100172.28;5030009;28;20053;-82
2021/05/16 08:18:06;;;;;;;31.88;8.13;;;;;;;16.43;57.39;100168.34;5031072;28;20055;-84
2021/05/16 08:20:33;;;;;;;28.73;8.45;;;;;;;16.48;57.52;100170.75;5033089;28;20389;-83
2021/05/16 08:23:00;;;;;;;30.08;8.18;;;;;;;16.66;57.57;100176.91;5033308;28;20388;-80
2021/05/16 08:25:27;;;;;;;23.88;7.60;;;;;;;16.18;57.38;100168.81;5029090;28;20032;-85
2021/05/16 08:27:53;;;;;;;26.67;8.55;;;;;;;16.41;57.71;100172.94;5032216;28;20033;-84
2021/05/16 08:30:20;;;;;;;23.98;7.90;;;;;;;16.21;58.23;100165.13;5034378;28;20040;-83
2021/05/16 08:32:48;;;;;;;27.90;7.93;;;;;;;16.09;58.42;100175.53;5033773;28;20041;-84
2021/05/16 08:35:14;;;;;;;27.30;7.47;;;;;;;15.98;58.73;100183.25;5033962;28;20021;-80
2021/05/16 08:37:41;;;;;;;22.27;7.65;;;;;;;15.77;59.24;100198.56;5030491;28;20056;-83
2021/05/16 08:40:09;;;;;;;20.60;5.80;;;;;;;15.56;59.55;100219.25;5032086;28;20033;-79
2021/05/16 08:42:35;;;;;;;17.58;5.03;;;;;;;15.29;59.82;100184.97;5030733;28;20036;-83
2021/05/16 08:45:02;;;;;;;13.68;5.07;;;;;;;15.08;60.34;100176.22;5028713;28;20022;-83
2021/05/16 08:47:29;;;;;;;11.82;5.00;;;;;;;15.00;61.09;100173.94;5034123;28;20033;-79
2021/05/16 08:49:56;;;;;;;17.25;5.40;;;;;;;14.88;61.69;100180.75;5030093;28;20026;-82
2021/05/16 08:52:22;;;;;;;17.67;5.43;;;;;;;14.84;61.64;100181.84;5030846;28;20534;-82
2021/05/16 08:54:53;;;;;;;23.23;5.72;;;;;;;14.85;61.80;100171.13;5030818;28;20061;-83
2021/05/16 08:57:19;;;;;;;17.52;6.53;;;;;;;14.85;62.05;100172.91;5031684;28;20033;-81
2021/05/16 09:03:09;;;;;;;17.30;5.97;;;;;;;15.27;62.71;100177.06;5078986;27;21053;-83
2021/05/16 09:11:06;;;;;;;24.25;8.57;;;;;;;15.23;64.38;100177.28;5064374;28;20952;-81
2021/05/16 09:16:17;;;;;;;34.85;11.82;;;;;;;15.07;64.61;100169.19;5070739;28;20420;-78
2021/05/16 09:18:47;;;;;;;33.25;9.85;;;;;;;15.15;64.06;100183.00;5067156;28;20060;-81
2021/05/16 09:21:25;;;;;;;33.85;8.20;;;;;;;15.12;64.10;100173.34;5051314;28;20440;-82
2021/05/16 09:26:58;;;;;;;28.30;6.78;;;;;;;15.46;63.43;100176.13;5101725;27;20367;-81
2021/05/16 09:32:09;;;;;;;23.45;7.07;;;;;;;15.74;63.17;100159.53;5143671;22;20408;-80
2021/05/16 09:34:39;;;;;;;26.65;7.43;;;;;;;16.08;63.01;100165.78;5099424;28;20028;-81
2021/05/16 09:37:08;;;;;;;24.60;7.60;;;;;;;15.89;60.99;100173.94;5109849;28;20062;-81
2021/05/16 09:39:36;;;;;;;25.75;6.13;;;;;;;16.13;61.17;100174.41;5108925;28;20165;-80
2021/05/16 09:42:10;;;;;;;22.02;5.53;;;;;;;16.28;61.04;100163.84;5085677;28;20032;-80
2021/05/16 09:44:40;;;;;;;9.73;3.28;;;;;;;16.17;60.58;100178.66;5101122;28;20028;-79
2021/05/16 09:49:55;;;;;;;12.30;4.30;;;;;;;15.90;59.77;100180.13;5105840;27;20738;-83
2021/05/16 09:55:10;;;;;;;14.75;4.15;;;;;;;15.51;59.93;100185.63;5027982;27;865632;-78
2021/05/16 09:57:39;;;;;;;15.65;3.72;;;;;;;15.52;60.08;100187.34;5060260;28;20090;-83
2021/05/16 10:00:08;;;;;;;12.88;3.92;;;;;;;15.66;59.93;100181.31;5042149;28;20041;-77
2021/05/16 10:02:35;;;;;;;12.88;3.00;;;;;;;15.73;59.65;100173.84;5026927;28;20583;-84
2021/05/16 10:05:03;;;;;;;15.93;3.35;;;;;;;15.90;59.48;100169.44;5048135;28;20044;-81
2021/05/16 10:07:30;;;;;;;15.70;3.75;;;;;;;16.08;58.77;100172.94;5045581;28;20033;-83
2021/05/16 10:09:58;;;;;;;16.80;4.28;;;;;;;16.35;58.89;100159.91;5042152;28;20402;-83
2021/05/16 10:12:25;;;;;;;22.70;4.18;;;;;;;16.26;57.31;100168.41;5040941;28;20032;-85
2021/05/16 10:17:42;;;;;;;23.02;4.93;;;;;;;16.52;57.08;100171.47;5044343;28;20424;-83
2021/05/16 10:20:13;;;;;;;18.67;4.90;;;;;;;17.03;56.42;100163.28;5045131;28;20160;-84
2021/05/16 10:22:41;;;;;;;16.00;4.95;;;;;;;17.30;55.50;100161.63;5026123;28;20038;-84
2021/05/16 10:25:08;;;;;;;19.23;5.32;;;;;;;17.40;55.33;100164.63;5028039;28;20034;-84
2021/05/16 10:27:44;;;;;;;22.67;5.78;;;;;;;17.17;54.39;100166.00;5029284;28;20045;-79
2021/05/16 10:30:16;;;;;;;21.55;6.55;;;;;;;17.06;55.47;100166.63;5026683;28;20401;-80
2021/05/16 10:32:54;;;;;;;17.10;6.43;;;;;;;17.22;55.74;100157.69;5027806;28;20061;-82
2021/05/16 10:35:48;;;;;;;18.00;6.63;;;;;;;17.34;54.48;100148.94;5029418;28;20033;-86
2021/05/16 10:44:29;;;;;;;21.83;6.40;;;;;;;17.19;52.88;100148.03;5135774;27;20349;-85
2021/05/16 10:46:55;;;;;;;16.92;5.43;;;;;;;17.29;53.58;100151.03;5142312;27;20027;-83
2021/05/16 10:49:26;;;;;;;25.02;5.78;;;;;;;17.25;52.71;100147.66;5138058;27;20478;-85
2021/05/16 10:51:53;;;;;;;20.83;5.85;;;;;;;17.46;53.52;100156.25;5126209;27;20084;-82
2021/05/16 10:54:28;;;;;;;16.58;5.70;;;;;;;17.62;53.37;100145.47;5121307;27;20099;-83
2021/05/16 10:57:17;;;;;;;18.95;5.57;;;;;;;18.11;52.38;100128.19;5127260;27;20032;-84
2021/05/16 10:59:45;;;;;;;23.33;5.57;;;;;;;18.31;52.94;100134.13;5121670;27;20019;-83
2021/05/16 11:02:32;;;;;;;22.55;4.93;;;;;;;18.35;52.64;100135.63;5121209;27;20089;-85
2021/05/16 11:04:59;;;;;;;22.27;4.78;;;;;;;18.22;52.23;100142.75;5120002;27;20443;-84
2021/05/16 11:07:34;;;;;;;16.35;4.75;;;;;;;18.18;51.70;100144.78;5122540;27;20024;-85
2021/05/16 11:10:29;;;;;;;19.85;4.63;;;;;;;18.15;51.19;100138.75;5117784;27;20391;-83
2021/05/16 11:15:53;;;;;;;20.17;4.65;;;;;;;17.56;51.14;100148.53;5057659;28;20418;-83
2021/05/16 11:18:22;;;;;;;21.90;5.90;;;;;;;17.50;51.04;100153.41;5061863;28;20025;-83
2021/05/16 11:20:52;;;;;;;23.15;4.55;;;;;;;17.39;51.24;100152.19;5063629;28;20047;-83
2021/05/16 11:23:28;;;;;;;17.75;4.18;;;;;;;17.27;51.58;100152.94;5061727;28;20029;-77
2021/05/16 11:26:05;;;;;;;16.92;4.40;;;;;;;17.12;51.60;100158.25;5065013;28;20051;-83
2021/05/16 11:28:34;;;;;;;17.13;4.35;;;;;;;17.17;52.19;100162.47;5062283;28;20495;-85
2021/05/16 11:31:20;;;;;;;18.00;4.18;;;;;;;17.25;52.27;100158.38;5060843;28;20107;-82
2021/05/16 11:33:48;;;;;;;19.00;4.00;;;;;;;17.39;52.01;100146.84;5060528;28;20441;-78
2021/05/16 11:36:18;;;;;;;22.52;5.13;;;;;;;17.18;52.80;100154.34;5062321;28;20045;-84
2021/05/16 11:38:47;;;;;;;22.33;4.72;;;;;;;17.25;52.96;100149.50;5046538;28;20045;-83
2021/05/16 11:41:35;;;;;;;20.20;4.57;;;;;;;17.41;53.00;100144.94;5067981;28;20025;-79
2021/05/16 11:44:06;;;;;;;19.27;4.35;;;;;;;17.19;53.87;100152.53;5068731;28;20020;-84
2021/05/16 11:46:35;;;;;;;17.80;3.92;;;;;;;17.20;53.65;100140.88;5062449;28;20075;-80
2021/05/16 11:49:02;;;;;;;13.73;3.10;;;;;;;17.05;52.94;100154.19;5065317;28;20033;-83
2021/05/16 11:51:31;;;;;;;15.30;4.50;;;;;;;16.94;52.59;100160.16;5050881;28;20090;-86
2021/05/16 11:54:01;;;;;;;14.05;3.35;;;;;;;16.74;52.53;100150.56;5067123;28;20025;-82